sensor_id;sensor_type;location;lat;lon;timestamp;pressure;altitude;pressure_sealevel;temperature;humidity
43745;BME280;29359;53.048;8.732;2023-02-25T00:01:56;100208.63;;;4.24;88.87
43745;BME280;29359;53.048;8.732;2023-02-25T00:04:05;100209.50;;;4.22;89.45
43745;BME280;29359;53.048;8.732;2023-02-25T00:06:08;100217.41;;;4.19;89.24
43745;BME280;29359;53.048;8.732;2023-02-25T00:08:10;100219.16;;;4.17;89.06
43745;BME280;29359;53.048;8.732;2023-02-25T00:10:12;100216.56;;;4.15;88.92
43745;BME280;29359;53.048;8.732;2023-02-25T00:12:14;100214.00;;;4.10;88.93
43745;BME280;29359;53.048;8.732;2023-02-25T00:14:16;100214.94;;;4.06;88.94
43745;BME280;29359;53.048;8.732;2023-02-25T00:16:19;100211.44;;;4.06;89.24
43745;BME280;29359;53.048;8.732;2023-02-25T00:18:21;100214.09;;;4.04;88.63
43745;BME280;29359;53.048;8.732;2023-02-25T00:20:22;100208.94;;;3.98;88.83
43745;BME280;29359;53.048;8.732;2023-02-25T00:22:24;100203.78;;;3.92;89.67
43745;BME280;29359;53.048;8.732;2023-02-25T00:24:25;100204.66;;;3.88;89.21
43745;BME280;29359;53.048;8.732;2023-02-25T00:26:27;100213.41;;;3.84;89.79
43745;BME280;29359;53.048;8.732;2023-02-25T00:28:28;100215.19;;;3.82;89.90
43745;BME280;29359;53.048;8.732;2023-02-25T00:30:31;100213.47;;;3.78;90.30
43745;BME280;29359;53.048;8.732;2023-02-25T00:32:33;100235.28;;;3.74;90.21
43745;BME280;29359;53.048;8.732;2023-02-25T00:34:34;100241.38;;;3.74;90.79
43745;BME280;29359;53.048;8.732;2023-02-25T00:36:36;100247.47;;;3.73;90.45
43745;BME280;29359;53.048;8.732;2023-02-25T00:38:38;100241.38;;;3.73;90.71
43745;BME280;29359;53.048;8.732;2023-02-25T00:40:39;100243.09;;;3.77;90.96
43745;BME280;29359;53.048;8.732;2023-02-25T00:42:41;100256.13;;;3.77;91.07
43745;BME280;29359;53.048;8.732;2023-02-25T00:44:48;100265.72;;;3.76;91.12
43745;BME280;29359;53.048;8.732;2023-02-25T00:46:50;100261.41;;;3.74;91.33
43745;BME280;29359;53.048;8.732;2023-02-25T00:48:52;100261.41;;;3.72;91.43
43745;BME280;29359;53.048;8.732;2023-02-25T00:50:53;100258.78;;;3.72;90.48
43745;BME280;29359;53.048;8.732;2023-02-25T00:52:55;100264.91;;;3.70;91.15
43745;BME280;29359;53.048;8.732;2023-02-25T00:54:56;100273.63;;;3.70;90.61
43745;BME280;29359;53.048;8.732;2023-02-25T00:56:58;100269.25;;;3.71;91.03
43745;BME280;29359;53.048;8.732;2023-02-25T00:58:59;100270.13;;;3.71;91.24
43745;BME280;29359;53.048;8.732;2023-02-25T01:01:01;100277.09;;;3.71;91.11
43745;BME280;29359;53.048;8.732;2023-02-25T01:03:03;100269.28;;;3.69;91.41
43745;BME280;29359;53.048;8.732;2023-02-25T01:05:04;100275.34;;;3.71;91.07
43745;BME280;29359;53.048;8.732;2023-02-25T01:07:06;100277.13;;;3.68;90.35
43745;BME280;29359;53.048;8.732;2023-02-25T01:09:08;100283.19;;;3.68;90.71
43745;BME280;29359;53.048;8.732;2023-02-25T01:11:17;100284.06;;;3.70;90.38
43745;BME280;29359;53.048;8.732;2023-02-25T01:13:21;100286.69;;;3.67;90.24
43745;BME280;29359;53.048;8.732;2023-02-25T01:15:22;100291.91;;;3.69;90.33
43745;BME280;29359;53.048;8.732;2023-02-25T01:17:24;100285.78;;;3.71;89.35
43745;BME280;29359;53.048;8.732;2023-02-25T01:19:26;100296.19;;;3.74;89.17
43745;BME280;29359;53.048;8.732;2023-02-25T01:21:38;100294.44;;;3.75;89.54
43745;BME280;29359;53.048;8.732;2023-02-25T01:23:40;100298.81;;;3.74;89.14
43745;BME280;29359;53.048;8.732;2023-02-25T01:25:42;100293.56;;;3.76;88.56
43745;BME280;29359;53.048;8.732;2023-02-25T01:27:43;100292.69;;;3.77;88.27
43745;BME280;29359;53.048;8.732;2023-02-25T01:29:44;100293.56;;;3.77;88.29
43745;BME280;29359;53.048;8.732;2023-02-25T01:31:46;100292.69;;;3.78;88.29
43745;BME280;29359;53.048;8.732;2023-02-25T01:33:52;100293.53;;;3.79;87.74
43745;BME280;29359;53.048;8.732;2023-02-25T01:35:53;100297.91;;;3.77;88.26
43745;BME280;29359;53.048;8.732;2023-02-25T01:37:55;100297.91;;;3.77;88.25
43745;BME280;29359;53.048;8.732;2023-02-25T01:39:56;100304.00;;;3.76;88.47
43745;BME280;29359;53.048;8.732;2023-02-25T01:42:01;100311.84;;;3.77;87.90
43745;BME280;29359;53.048;8.732;2023-02-25T01:44:13;100312.69;;;3.78;88.13
43745;BME280;29359;53.048;8.732;2023-02-25T01:46:15;100310.09;;;3.78;88.29
43745;BME280;29359;53.048;8.732;2023-02-25T01:48:18;100313.56;;;3.77;88.19
43745;BME280;29359;53.048;8.732;2023-02-25T01:50:23;100320.53;;;3.76;88.12
43745;BME280;29359;53.048;8.732;2023-02-25T01:52:25;100317.94;;;3.76;88.00
43745;BME280;29359;53.048;8.732;2023-02-25T01:54:27;100324.91;;;3.76;87.83
43745;BME280;29359;53.048;8.732;2023-02-25T01:56:29;100317.91;;;3.78;88.14
43745;BME280;29359;53.048;8.732;2023-02-25T01:58:32;100316.16;;;3.78;88.42
43745;BME280;29359;53.048;8.732;2023-02-25T02:00:34;100321.41;;;3.78;88.19
43745;BME280;29359;53.048;8.732;2023-02-25T02:02:38;100322.28;;;3.76;87.81
43745;BME280;29359;53.048;8.732;2023-02-25T02:04:41;100315.34;;;3.73;87.37
43745;BME280;29359;53.048;8.732;2023-02-25T02:06:45;100318.84;;;3.71;87.72
43745;BME280;29359;53.048;8.732;2023-02-25T02:09:13;100316.28;;;3.68;87.49
43745;BME280;29359;53.048;8.732;2023-02-25T02:11:16;100322.41;;;3.64;87.83
43745;BME280;29359;53.048;8.732;2023-02-25T02:13:18;100319.81;;;3.62;88.16
43745;BME280;29359;53.048;8.732;2023-02-25T02:15:20;100325.91;;;3.61;88.37
43745;BME280;29359;53.048;8.732;2023-02-25T02:22:13;100332.88;;;3.59;89.22
43745;BME280;29359;53.048;8.732;2023-02-25T02:24:28;100342.44;;;3.60;88.80
43745;BME280;29359;53.048;8.732;2023-02-25T02:26:48;100341.59;;;3.58;89.00
43745;BME280;29359;53.048;8.732;2023-02-25T02:29:22;100350.28;;;3.59;89.41
43745;BME280;29359;53.048;8.732;2023-02-25T02:36:23;100337.31;;;3.50;88.79
43745;BME280;29359;53.048;8.732;2023-02-25T02:38:36;100340.78;;;3.49;88.89
43745;BME280;29359;53.048;8.732;2023-02-25T02:40:54;100344.28;;;3.49;88.99
43745;BME280;29359;53.048;8.732;2023-02-25T02:45:47;100345.13;;;3.45;89.11
43745;BME280;29359;53.048;8.732;2023-02-25T02:48:01;100343.41;;;3.45;88.99
43745;BME280;29359;53.048;8.732;2023-02-25T02:50:10;100350.34;;;3.45;89.02
43745;BME280;29359;53.048;8.732;2023-02-25T02:52:13;100352.09;;;3.44;89.47
43745;BME280;29359;53.048;8.732;2023-02-25T02:54:17;100351.25;;;3.42;89.58
43745;BME280;29359;53.048;8.732;2023-02-25T02:56:21;100353.84;;;3.42;89.17
43745;BME280;29359;53.048;8.732;2023-02-25T02:58:28;100361.66;;;3.45;89.77
43745;BME280;29359;53.048;8.732;2023-02-25T03:00:35;100361.66;;;3.45;89.02
43745;BME280;29359;53.048;8.732;2023-02-25T03:02:39;100357.31;;;3.49;89.33
43745;BME280;29359;53.048;8.732;2023-02-25T03:04:46;100367.72;;;3.54;88.83
43745;BME280;29359;53.048;8.732;2023-02-25T03:06:51;100362.47;;;3.57;89.46
43745;BME280;29359;53.048;8.732;2023-02-25T03:09:01;100368.56;;;3.57;89.14
43745;BME280;29359;53.048;8.732;2023-02-25T03:11:04;100373.78;;;3.57;89.22
43745;BME280;29359;53.048;8.732;2023-02-25T03:13:06;100372.91;;;3.60;88.38
43745;BME280;29359;53.048;8.732;2023-02-25T03:15:08;100382.44;;;3.62;89.15
43745;BME280;29359;53.048;8.732;2023-02-25T03:17:13;100380.66;;;3.67;87.86
43745;BME280;29359;53.048;8.732;2023-02-25T03:19:25;100396.28;;;3.72;88.22
43745;BME280;29359;53.048;8.732;2023-02-25T03:21:36;100388.44;;;3.75;88.66
43745;BME280;29359;53.048;8.732;2023-02-25T03:23:39;100392.78;;;3.76;88.64
43745;BME280;29359;53.048;8.732;2023-02-25T03:25:45;100399.72;;;3.77;89.36
43745;BME280;29359;53.048;8.732;2023-02-25T03:27:52;100403.22;;;3.77;88.01
43745;BME280;29359;53.048;8.732;2023-02-25T03:30:05;100410.16;;;3.82;87.89
43745;BME280;29359;53.048;8.732;2023-02-25T03:32:14;100411.03;;;3.79;86.72
43745;BME280;29359;53.048;8.732;2023-02-25T03:34:20;100415.34;;;3.83;86.80
43745;BME280;29359;53.048;8.732;2023-02-25T03:36:29;100419.69;;;3.84;86.16
43745;BME280;29359;53.048;8.732;2023-02-25T03:38:33;100422.31;;;3.83;85.47
43745;BME280;29359;53.048;8.732;2023-02-25T03:40:39;100422.28;;;3.86;85.68
43745;BME280;29359;53.048;8.732;2023-02-25T03:42:55;100421.44;;;3.85;85.72
43745;BME280;29359;53.048;8.732;2023-02-25T03:45:02;100430.13;;;3.86;85.26
43745;BME280;29359;53.048;8.732;2023-02-25T03:47:08;100421.44;;;3.84;84.12
43745;BME280;29359;53.048;8.732;2023-02-25T03:49:15;100425.78;;;3.83;83.94
43745;BME280;29359;53.048;8.732;2023-02-25T03:51:23;100431.88;;;3.85;84.30
43745;BME280;29359;53.048;8.732;2023-02-25T03:53:28;100433.63;;;3.83;84.29
43745;BME280;29359;53.048;8.732;2023-02-25T03:55:30;100434.53;;;3.81;82.84
43745;BME280;29359;53.048;8.732;2023-02-25T03:57:36;100435.38;;;3.81;83.54
43745;BME280;29359;53.048;8.732;2023-02-25T03:59:38;100443.22;;;3.79;83.81
43745;BME280;29359;53.048;8.732;2023-02-25T04:01:41;100444.97;;;3.81;84.47
43745;BME280;29359;53.048;8.732;2023-02-25T04:03:43;100450.19;;;3.79;85.21
43745;BME280;29359;53.048;8.732;2023-02-25T04:05:44;100452.84;;;3.74;83.92
43745;BME280;29359;53.048;8.732;2023-02-25T04:07:46;100457.22;;;3.71;83.42
43745;BME280;29359;53.048;8.732;2023-02-25T04:09:48;100469.38;;;3.72;83.49
43745;BME280;29359;53.048;8.732;2023-02-25T04:11:49;100475.50;;;3.71;83.58
43745;BME280;29359;53.048;8.732;2023-02-25T04:13:51;100476.38;;;3.68;84.07
43745;BME280;29359;53.048;8.732;2023-02-25T04:15:52;100477.28;;;3.64;84.50
43745;BME280;29359;53.048;8.732;2023-02-25T04:17:54;100478.13;;;3.66;85.50
43745;BME280;29359;53.048;8.732;2023-02-25T04:19:55;100484.25;;;3.64;87.55
43745;BME280;29359;53.048;8.732;2023-02-25T04:21:57;100478.16;;;3.62;88.87
43745;BME280;29359;53.048;8.732;2023-02-25T04:24:01;100479.03;;;3.59;89.04
43745;BME280;29359;53.048;8.732;2023-02-25T04:26:03;100474.72;;;3.57;89.24
43745;BME280;29359;53.048;8.732;2023-02-25T04:28:06;100479.97;;;3.49;88.99
43745;BME280;29359;53.048;8.732;2023-02-25T04:30:08;100479.97;;;3.46;88.25
43745;BME280;29359;53.048;8.732;2023-02-25T04:32:10;100482.56;;;3.46;89.23
43745;BME280;29359;53.048;8.732;2023-02-25T04:34:12;100481.72;;;3.39;89.21
43745;BME280;29359;53.048;8.732;2023-02-25T04:38:30;100480.00;;;3.35;88.35
43745;BME280;29359;53.048;8.732;2023-02-25T04:40:32;100478.28;;;3.36;89.25
43745;BME280;29359;53.048;8.732;2023-02-25T04:42:33;100487.88;;;3.29;88.70
43745;BME280;29359;53.048;8.732;2023-02-25T04:44:35;100484.38;;;3.30;89.25
43745;BME280;29359;53.048;8.732;2023-02-25T04:46:39;100488.78;;;3.22;87.90
43745;BME280;29359;53.048;8.732;2023-02-25T04:48:41;100487.91;;;3.25;88.71
43745;BME280;29359;53.048;8.732;2023-02-25T04:50:43;100484.44;;;3.21;88.06
43745;BME280;29359;53.048;8.732;2023-02-25T04:52:44;100492.25;;;3.23;88.02
43745;BME280;29359;53.048;8.732;2023-02-25T04:54:46;100489.63;;;3.23;88.19
43745;BME280;29359;53.048;8.732;2023-02-25T04:56:48;100485.28;;;3.22;87.47
43745;BME280;29359;53.048;8.732;2023-02-25T04:58:49;100500.09;;;3.21;87.04
43745;BME280;29359;53.048;8.732;2023-02-25T05:00:51;100486.16;;;3.22;87.25
43745;BME280;29359;53.048;8.732;2023-02-25T05:02:53;100487.03;;;3.20;85.95
43745;BME280;29359;53.048;8.732;2023-02-25T05:04:55;100488.78;;;3.19;85.82
43745;BME280;29359;53.048;8.732;2023-02-25T05:06:56;100480.09;;;3.17;85.65
43745;BME280;29359;53.048;8.732;2023-02-25T05:08:58;100487.06;;;3.17;85.32
43745;BME280;29359;53.048;8.732;2023-02-25T05:11:00;100491.41;;;3.13;85.93
43745;BME280;29359;53.048;8.732;2023-02-25T05:13:02;100489.69;;;3.09;85.73
43745;BME280;29359;53.048;8.732;2023-02-25T05:15:03;100497.53;;;3.04;85.44
43745;BME280;29359;53.048;8.732;2023-02-25T05:17:05;100501.88;;;3.04;85.90
43745;BME280;29359;53.048;8.732;2023-02-25T05:19:07;100504.50;;;3.04;85.66
43745;BME280;29359;53.048;8.732;2023-02-25T05:21:12;100506.19;;;3.03;86.30
43745;BME280;29359;53.048;8.732;2023-02-25T05:23:14;100509.69;;;3.05;86.15
43745;BME280;29359;53.048;8.732;2023-02-25T05:25:16;100517.53;;;3.04;86.27
43745;BME280;29359;53.048;8.732;2023-02-25T05:27:18;100517.53;;;3.05;86.71
43745;BME280;29359;53.048;8.732;2023-02-25T05:29:19;100521.88;;;3.05;87.33
43745;BME280;29359;53.048;8.732;2023-02-25T05:31:21;100518.38;;;3.03;87.84
43745;BME280;29359;53.048;8.732;2023-02-25T05:33:25;100530.56;;;2.99;87.32
43745;BME280;29359;53.048;8.732;2023-02-25T05:35:27;100527.94;;;2.98;87.75
43745;BME280;29359;53.048;8.732;2023-02-25T05:37:30;100525.34;;;2.98;87.66
43745;BME280;29359;53.048;8.732;2023-02-25T05:39:32;100528.81;;;3.00;88.80
43745;BME280;29359;53.048;8.732;2023-02-25T05:41:33;100531.41;;;3.00;89.97
43745;BME280;29359;53.048;8.732;2023-02-25T05:43:36;100527.94;;;2.98;89.62
43745;BME280;29359;53.048;8.732;2023-02-25T05:45:37;100534.03;;;2.97;89.02
43745;BME280;29359;53.048;8.732;2023-02-25T05:47:39;100531.44;;;2.98;88.84
43745;BME280;29359;53.048;8.732;2023-02-25T05:49:41;100530.56;;;2.99;88.06
43745;BME280;29359;53.048;8.732;2023-02-25T05:51:43;100530.56;;;2.99;87.75
43745;BME280;29359;53.048;8.732;2023-02-25T05:53:45;100533.16;;;2.96;86.92
43745;BME280;29359;53.048;8.732;2023-02-25T05:55:48;100541.00;;;2.96;86.75
43745;BME280;29359;53.048;8.732;2023-02-25T05:57:50;100534.91;;;2.96;86.85
43745;BME280;29359;53.048;8.732;2023-02-25T05:59:51;100541.88;;;2.92;86.95
43745;BME280;29359;53.048;8.732;2023-02-25T06:01:53;100540.13;;;2.91;86.51
43745;BME280;29359;53.048;8.732;2023-02-25T06:03:55;100536.66;;;2.91;87.24
43745;BME280;29359;53.048;8.732;2023-02-25T06:05:59;100551.44;;;2.90;86.88
43745;BME280;29359;53.048;8.732;2023-02-25T06:08:01;100541.88;;;2.88;87.17
43745;BME280;29359;53.048;8.732;2023-02-25T06:10:02;100545.38;;;2.85;87.50
43745;BME280;29359;53.048;8.732;2023-02-25T06:12:04;100547.97;;;2.83;87.88
43745;BME280;29359;53.048;8.732;2023-02-25T06:14:06;100558.41;;;2.80;87.49
43745;BME280;29359;53.048;8.732;2023-02-25T06:16:07;100556.66;;;2.81;87.80
43745;BME280;29359;53.048;8.732;2023-02-25T06:18:09;100566.22;;;2.79;87.75
43745;BME280;29359;53.048;8.732;2023-02-25T06:20:11;100565.34;;;2.81;87.98
43745;BME280;29359;53.048;8.732;2023-02-25T06:22:13;100575.78;;;2.80;87.90
43745;BME280;29359;53.048;8.732;2023-02-25T06:24:14;100574.03;;;2.87;87.88
43745;BME280;29359;53.048;8.732;2023-02-25T06:26:17;100580.97;;;2.92;88.37
43745;BME280;29359;53.048;8.732;2023-02-25T06:28:18;100602.69;;;2.96;89.47
43745;BME280;29359;53.048;8.732;2023-02-25T06:30:20;100625.31;;;2.97;89.36
43745;BME280;29359;53.048;8.732;2023-02-25T06:32:21;100603.56;;;2.92;89.26
43745;BME280;29359;53.048;8.732;2023-02-25T06:34:23;100607.06;;;2.89;90.21
43745;BME280;29359;53.048;8.732;2023-02-25T06:36:25;100600.97;;;2.84;90.62
43745;BME280;29359;53.048;8.732;2023-02-25T06:38:27;100606.19;;;2.76;90.37
43745;BME280;29359;53.048;8.732;2023-02-25T06:40:29;100607.06;;;2.72;89.62
43745;BME280;29359;53.048;8.732;2023-02-25T06:42:30;100607.06;;;2.68;88.83
43745;BME280;29359;53.048;8.732;2023-02-25T06:44:32;100616.63;;;2.69;88.98
43745;BME280;29359;53.048;8.732;2023-02-25T06:46:33;100613.16;;;2.68;87.88
43745;BME280;29359;53.048;8.732;2023-02-25T06:48:35;100622.72;;;2.68;87.59
43745;BME280;29359;53.048;8.732;2023-02-25T06:50:40;100624.44;;;2.70;87.67
43745;BME280;29359;53.048;8.732;2023-02-25T06:52:42;100622.72;;;2.72;87.39
43745;BME280;29359;53.048;8.732;2023-02-25T06:54:43;100630.53;;;2.74;87.41
43745;BME280;29359;53.048;8.732;2023-02-25T06:56:45;100619.22;;;2.75;86.56
43745;BME280;29359;53.048;8.732;2023-02-25T06:58:47;100628.78;;;2.76;85.36
43745;BME280;29359;53.048;8.732;2023-02-25T07:00:48;100628.78;;;2.74;85.08
43745;BME280;29359;53.048;8.732;2023-02-25T07:02:50;100626.19;;;2.68;85.43
43745;BME280;29359;53.048;8.732;2023-02-25T07:04:52;100634.00;;;2.74;87.12
43745;BME280;29359;53.048;8.732;2023-02-25T07:06:54;100641.81;;;2.71;87.52
43745;BME280;29359;53.048;8.732;2023-02-25T07:08:56;100646.16;;;2.71;86.85
43745;BME280;29359;53.048;8.732;2023-02-25T07:13:18;100648.78;;;2.81;88.57
43745;BME280;29359;53.048;8.732;2023-02-25T07:15:20;100649.66;;;2.83;88.49
43745;BME280;29359;53.048;8.732;2023-02-25T07:17:22;100650.50;;;2.81;86.66
43745;BME280;29359;53.048;8.732;2023-02-25T07:19:23;100662.69;;;2.77;85.52
43745;BME280;29359;53.048;8.732;2023-02-25T07:21:24;100671.38;;;2.81;88.33
43745;BME280;29359;53.048;8.732;2023-02-25T07:23:29;100667.03;;;2.77;89.04
43745;BME280;29359;53.048;8.732;2023-02-25T07:25:31;100665.28;;;2.70;89.63
43745;BME280;29359;53.048;8.732;2023-02-25T07:27:32;100676.56;;;2.64;89.54
43745;BME280;29359;53.048;8.732;2023-02-25T07:29:34;100693.06;;;2.62;90.24
43745;BME280;29359;53.048;8.732;2023-02-25T07:31:35;100695.69;;;2.60;90.46
43745;BME280;29359;53.048;8.732;2023-02-25T07:33:37;100707.84;;;2.61;91.36
43745;BME280;29359;53.048;8.732;2023-02-25T07:35:39;100705.19;;;2.60;92.16
43745;BME280;29359;53.048;8.732;2023-02-25T07:37:40;100706.06;;;2.59;92.07
43745;BME280;29359;53.048;8.732;2023-02-25T07:39:42;100713.03;;;2.58;92.51
43745;BME280;29359;53.048;8.732;2023-02-25T07:41:43;100710.41;;;2.58;92.58
43745;BME280;29359;53.048;8.732;2023-02-25T07:43:45;100709.59;;;2.61;92.50
43745;BME280;29359;53.048;8.732;2023-02-25T07:45:48;100716.53;;;2.60;92.41
43745;BME280;29359;53.048;8.732;2023-02-25T07:47:53;100714.75;;;2.58;92.35
43745;BME280;29359;53.048;8.732;2023-02-25T07:49:55;100713.00;;;2.55;92.84
43745;BME280;29359;53.048;8.732;2023-02-25T07:51:56;100725.19;;;2.56;93.08
43745;BME280;29359;53.048;8.732;2023-02-25T07:53:58;100712.16;;;2.59;92.88
43745;BME280;29359;53.048;8.732;2023-02-25T07:56:00;100720.88;;;2.63;92.61
43745;BME280;29359;53.048;8.732;2023-02-25T07:58:02;100725.22;;;2.68;92.54
43745;BME280;29359;53.048;8.732;2023-02-25T08:00:07;100729.59;;;2.72;92.16
43745;BME280;29359;53.048;8.732;2023-02-25T08:02:11;100728.72;;;2.72;91.31
43745;BME280;29359;53.048;8.732;2023-02-25T08:04:12;100721.75;;;2.74;91.29
43745;BME280;29359;53.048;8.732;2023-02-25T08:06:14;100733.06;;;2.74;91.69
43745;BME280;29359;53.048;8.732;2023-02-25T08:08:15;100732.19;;;2.75;91.78
43745;BME280;29359;53.048;8.732;2023-02-25T08:10:17;100731.31;;;2.76;91.64
43745;BME280;29359;53.048;8.732;2023-02-25T08:12:19;100720.03;;;2.79;91.20
43745;BME280;29359;53.048;8.732;2023-02-25T08:14:20;100725.25;;;2.82;91.11
43745;BME280;29359;53.048;8.732;2023-02-25T08:16:22;100727.00;;;2.83;90.89
43745;BME280;29359;53.048;8.732;2023-02-25T08:18:24;100732.19;;;2.81;90.03
43745;BME280;29359;53.048;8.732;2023-02-25T08:20:25;100740.03;;;2.81;90.03
43745;BME280;29359;53.048;8.732;2023-02-25T08:22:27;100744.38;;;2.78;89.76
43745;BME280;29359;53.048;8.732;2023-02-25T08:24:29;100748.72;;;2.79;90.24
43745;BME280;29359;53.048;8.732;2023-02-25T08:26:30;100753.91;;;2.77;90.23
43745;BME280;29359;53.048;8.732;2023-02-25T08:28:32;100761.72;;;2.73;89.94
43745;BME280;29359;53.048;8.732;2023-02-25T08:30:37;100755.66;;;2.72;90.20
43745;BME280;29359;53.048;8.732;2023-02-25T08:32:38;100760.88;;;2.75;90.68
43745;BME280;29359;53.048;8.732;2023-02-25T08:34:42;100763.47;;;2.77;90.78
43745;BME280;29359;53.048;8.732;2023-02-25T08:36:44;100756.53;;;2.79;90.76
43745;BME280;29359;53.048;8.732;2023-02-25T08:38:46;100767.84;;;2.82;90.55
43745;BME280;29359;53.048;8.732;2023-02-25T08:40:47;100762.63;;;2.82;89.97
43745;BME280;29359;53.048;8.732;2023-02-25T08:42:49;100772.19;;;2.87;89.67
43745;BME280;29359;53.048;8.732;2023-02-25T08:44:50;100772.19;;;2.88;90.33
43745;BME280;29359;53.048;8.732;2023-02-25T08:46:52;100774.78;;;2.90;88.66
43745;BME280;29359;53.048;8.732;2023-02-25T08:48:54;100786.09;;;2.95;86.81
43745;BME280;29359;53.048;8.732;2023-02-25T08:50:55;100786.16;;;3.04;88.25
43745;BME280;29359;53.048;8.732;2023-02-25T08:52:57;100784.41;;;3.07;89.11
43745;BME280;29359;53.048;8.732;2023-02-25T08:55:00;100785.28;;;3.11;88.67
43745;BME280;29359;53.048;8.732;2023-02-25T08:57:02;100792.25;;;3.10;88.60
43745;BME280;29359;53.048;8.732;2023-02-25T08:59:04;100812.25;;;3.10;88.50
43745;BME280;29359;53.048;8.732;2023-02-25T09:01:08;100809.63;;;3.08;88.55
43745;BME280;29359;53.048;8.732;2023-02-25T09:03:13;100810.50;;;3.09;88.68
43745;BME280;29359;53.048;8.732;2023-02-25T09:05:14;100824.41;;;3.12;87.71
43745;BME280;29359;53.048;8.732;2023-02-25T09:07:16;100815.72;;;3.10;88.33
43745;BME280;29359;53.048;8.732;2023-02-25T09:09:19;100823.53;;;3.10;88.31
43745;BME280;29359;53.048;8.732;2023-02-25T09:11:20;100827.88;;;3.10;88.53
43745;BME280;29359;53.048;8.732;2023-02-25T09:13:23;100829.63;;;3.09;88.50
43745;BME280;29359;53.048;8.732;2023-02-25T09:15:24;100837.47;;;3.12;88.05
43745;BME280;29359;53.048;8.732;2023-02-25T09:17:26;100830.50;;;3.13;88.19
43745;BME280;29359;53.048;8.732;2023-02-25T09:19:27;100837.47;;;3.11;85.92
43745;BME280;29359;53.048;8.732;2023-02-25T09:21:29;100838.34;;;3.19;85.86
43745;BME280;29359;53.048;8.732;2023-02-25T09:23:30;100845.31;;;3.25;87.35
43745;BME280;29359;53.048;8.732;2023-02-25T09:25:32;100844.44;;;3.27;87.23
43745;BME280;29359;53.048;8.732;2023-02-25T09:27:33;100854.00;;;3.30;87.55
43745;BME280;29359;53.048;8.732;2023-02-25T09:29:37;100859.22;;;3.36;87.71
43745;BME280;29359;53.048;8.732;2023-02-25T09:31:39;100874.88;;;3.40;87.16
43745;BME280;29359;53.048;8.732;2023-02-25T09:33:41;100867.06;;;3.46;86.54
43745;BME280;29359;53.048;8.732;2023-02-25T09:35:43;100869.72;;;3.53;85.92
43745;BME280;29359;53.048;8.732;2023-02-25T09:37:45;100876.69;;;3.57;85.85
43745;BME280;29359;53.048;8.732;2023-02-25T09:39:47;100889.72;;;3.57;86.33
43745;BME280;29359;53.048;8.732;2023-02-25T09:42:09;100899.28;;;3.50;85.84
43745;BME280;29359;53.048;8.732;2023-02-25T09:44:24;100903.59;;;3.42;83.69
43745;BME280;29359;53.048;8.732;2023-02-25T09:46:28;100908.81;;;3.37;85.21
43745;BME280;29359;53.048;8.732;2023-02-25T09:48:33;100914.03;;;3.37;87.41
43745;BME280;29359;53.048;8.732;2023-02-25T09:50:39;100916.66;;;3.46;87.59
43745;BME280;29359;53.048;8.732;2023-02-25T09:53:17;100910.63;;;3.66;86.49
43745;BME280;29359;53.048;8.732;2023-02-25T09:55:27;100899.31;;;3.76;85.50
43745;BME280;29359;53.048;8.732;2023-02-25T09:57:35;100922.81;;;3.76;85.38
43745;BME280;29359;53.048;8.732;2023-02-25T09:59:38;100922.81;;;3.73;85.88
43745;BME280;29359;53.048;8.732;2023-02-25T10:01:51;100933.25;;;3.67;85.36
43745;BME280;29359;53.048;8.732;2023-02-25T10:04:02;100941.06;;;3.55;82.99
43745;BME280;29359;53.048;8.732;2023-02-25T10:08:33;100948.81;;;3.38;87.00
43745;BME280;29359;53.048;8.732;2023-02-25T10:18:22;100966.16;;;3.13;89.06
43745;BME280;29359;53.048;8.732;2023-02-25T10:25:24;100973.19;;;3.41;87.95
43745;BME280;29359;53.048;8.732;2023-02-25T10:29:37;100977.59;;;3.47;75.79
43745;BME280;29359;53.048;8.732;2023-02-25T10:31:41;100977.59;;;3.53;77.62
43745;BME280;29359;53.048;8.732;2023-02-25T10:33:49;100985.44;;;3.56;78.53
43745;BME280;29359;53.048;8.732;2023-02-25T10:38:11;100981.09;;;3.66;83.17
43745;BME280;29359;53.048;8.732;2023-02-25T10:40:16;100982.88;;;3.71;85.15
43745;BME280;29359;53.048;8.732;2023-02-25T10:42:18;100979.41;;;3.80;86.36
43745;BME280;29359;53.048;8.732;2023-02-25T10:44:19;100991.63;;;3.93;83.95
43745;BME280;29359;53.048;8.732;2023-02-25T10:46:31;100999.47;;;4.01;84.25
43745;BME280;29359;53.048;8.732;2023-02-25T10:48:34;100993.38;;;4.03;82.48
43745;BME280;29359;53.048;8.732;2023-02-25T10:50:35;100993.38;;;4.09;81.84
43745;BME280;29359;53.048;8.732;2023-02-25T10:53:04;100997.72;;;4.04;83.80
43745;BME280;29359;53.048;8.732;2023-02-25T10:57:31;100992.50;;;4.20;85.31
43745;BME280;29359;53.048;8.732;2023-02-25T10:59:38;101001.22;;;4.23;83.30
43745;BME280;29359;53.048;8.732;2023-02-25T11:01:40;100997.72;;;4.20;83.70
43745;BME280;29359;53.048;8.732;2023-02-25T11:04:09;101006.44;;;4.13;84.96
43745;BME280;29359;53.048;8.732;2023-02-25T11:06:12;101012.53;;;4.08;84.83
43745;BME280;29359;53.048;8.732;2023-02-25T11:08:30;101021.25;;;4.18;85.45
43745;BME280;29359;53.048;8.732;2023-02-25T11:10:32;101016.94;;;4.37;82.07
43745;BME280;29359;53.048;8.732;2023-02-25T11:12:41;101022.16;;;4.38;83.33
43745;BME280;29359;53.048;8.732;2023-02-25T11:14:43;101027.38;;;4.41;84.20
43745;BME280;29359;53.048;8.732;2023-02-25T11:16:45;101027.38;;;4.54;84.63
43745;BME280;29359;53.048;8.732;2023-02-25T11:18:51;101024.75;;;4.81;83.65
43745;BME280;29359;53.048;8.732;2023-02-25T11:21:04;101034.16;;;5.43;75.64
43745;BME280;29359;53.048;8.732;2023-02-25T11:23:18;101031.50;;;5.52;78.99
43745;BME280;29359;53.048;8.732;2023-02-25T11:25:41;101034.25;;;5.14;75.87
43745;BME280;29359;53.048;8.732;2023-02-25T11:27:47;101043.88;;;5.08;78.00
43745;BME280;29359;53.048;8.732;2023-02-25T11:29:59;101046.50;;;5.04;81.25
43745;BME280;29359;53.048;8.732;2023-02-25T11:32:12;101036.03;;;4.97;81.56
43745;BME280;29359;53.048;8.732;2023-02-25T11:34:20;101041.22;;;5.27;81.79
43745;BME280;29359;53.048;8.732;2023-02-25T11:36:27;101035.91;;;5.43;81.50